Time;durP1;ratioP1;P1;durP2;ratioP2;P2;SDS_P1;SDS_P2;PMS_P1;PMS_P2;Temp;Humidity;BMP_temperature;BMP_pressure;BME280_temperature;BME280_humidity;BME280_pressure;Samples;Min_cycle;Max_cycle;Signal;HPM_P1;HPM_P2
2022/08/20 00:00:46;;;;;;;1999.90;999.90;;;;;;;18.21;100.00;93363.28;5118554;28;20243;-58
2022/08/20 00:03:16;;;;;;;1999.90;999.90;;;;;;;18.25;100.00;93344.44;5118318;28;20216;-60
2022/08/20 00:05:46;;;;;;;1999.90;999.90;;;;;;;18.27;100.00;93350.19;5118419;28;20182;-60
2022/08/20 00:08:12;;;;;;;1999.90;999.90;;;;;;;18.29;100.00;93358.75;5118247;28;20191;-59
2022/08/20 00:10:40;;;;;;;1999.90;999.90;;;;;;;18.25;100.00;93363.78;5136166;28;20199;-60
2022/08/20 00:13:09;;;;;;;1999.90;999.90;;;;;;;18.27;100.00;93350.19;5118364;28;20195;-59
2022/08/20 00:15:37;;;;;;;1999.90;999.90;;;;;;;18.27;100.00;93362.03;5118154;27;20179;-59
2022/08/20 00:18:03;;;;;;;1999.90;999.90;;;;;;;18.31;100.00;93357.00;5117858;28;20221;-60
2022/08/20 00:20:32;;;;;;;1999.90;999.90;;;;;;;18.31;100.00;93367.28;5118786;28;20236;-63
2022/08/20 00:22:57;;;;;;;1999.90;999.90;;;;;;;18.29;100.00;93380.88;5118279;28;20198;-60
2022/08/20 00:25:24;;;;;;;1999.90;999.90;;;;;;;18.30;100.00;93387.91;5118120;28;20185;-58
2022/08/20 00:27:49;;;;;;;1999.90;999.90;;;;;;;18.35;100.00;93406.50;5117859;28;20191;-59
2022/08/20 00:30:15;;;;;;;1999.90;999.90;;;;;;;18.33;100.00;93403.47;5118103;28;20187;-60
2022/08/20 00:32:48;;;;;;;1999.90;999.90;;;;;;;18.34;100.00;93410.50;5117835;28;20201;-60
2022/08/20 00:35:16;;;;;;;1999.90;999.90;;;;;;;18.32;100.00;93424.81;5118399;28;20187;-59
2022/08/20 00:37:41;;;;;;;1999.90;999.90;;;;;;;18.29;100.00;93430.63;5117527;28;20203;-57
2022/08/20 00:40:09;;;;;;;1999.90;999.90;;;;;;;18.34;100.00;93433.38;5118047;28;20201;-58
2022/08/20 00:42:48;;;;;;;1999.90;999.90;;;;;;;18.31;100.00;93444.66;5117810;28;20182;-57
2022/08/20 00:45:15;;;;;;;1999.90;999.90;;;;;;;18.32;100.00;93457.25;5117938;28;20187;-57
2022/08/20 00:47:44;;;;;;;1999.90;999.90;;;;;;;18.34;100.00;93454.72;5117614;28;20183;-57
2022/08/20 00:50:16;;;;;;;1999.90;999.90;;;;;;;18.36;100.00;93466.09;5117379;28;20264;-57
2022/08/20 00:52:44;;;;;;;1999.90;999.90;;;;;;;18.34;100.00;93477.59;5135890;28;20270;-57
2022/08/20 00:55:11;;;;;;;1999.90;999.90;;;;;;;18.34;100.00;93476.84;5117178;28;20240;-57
2022/08/20 00:57:41;;;;;;;1999.90;999.90;;;;;;;18.34;100.00;93487.91;5117826;28;20256;-57
2022/08/20 01:00:12;;;;;;;1999.90;999.90;;;;;;;18.36;100.00;93479.91;5117355;28;20183;-59
2022/08/20 01:02:38;;;;;;;1999.90;999.90;;;;;;;18.33;100.00;93480.88;5118058;28;20195;-60
2022/08/20 01:05:08;;;;;;;1999.90;999.90;;;;;;;18.39;100.00;93495.50;5117447;28;20186;-60
2022/08/20 01:07:35;;;;;;;1999.90;999.90;;;;;;;18.36;100.00;93496.50;5117466;28;20259;-60
2022/08/20 01:10:06;;;;;;;1999.90;999.90;;;;;;;18.30;100.00;93498.44;5117206;28;20192;-59
2022/08/20 01:12:31;;;;;;;1999.90;999.90;;;;;;;18.29;100.00;93494.19;5117196;28;20175;-59
2022/08/20 01:14:59;;;;;;;1999.90;999.90;;;;;;;18.23;100.00;93482.34;5117205;28;20183;-60
2022/08/20 01:17:28;;;;;;;1999.90;999.90;;;;;;;18.18;100.00;93469.28;5117531;28;20228;-60
2022/08/20 01:20:00;;;;;;;1999.90;999.90;;;;;;;18.12;100.00;93449.94;5117385;28;20228;-59
2022/08/20 01:25:42;;;;;;;1999.90;999.90;;;;;;;18.11;100.00;93411.75;5135739;28;20409;-59
2022/08/20 01:28:10;;;;;;;1999.90;999.90;;;;;;;18.12;100.00;93404.94;5116687;28;20268;-60
2022/08/20 01:30:36;;;;;;;1999.90;999.90;;;;;;;18.09;100.00;93383.84;5117004;28;20187;-58
2022/08/20 01:33:03;;;;;;;1999.90;999.90;;;;;;;18.11;100.00;93370.28;5117249;28;20186;-60
2022/08/20 01:35:29;;;;;;;1999.90;999.90;;;;;;;18.08;100.00;93346.44;5117253;28;20269;-58
2022/08/20 01:37:54;;;;;;;1999.90;999.90;;;;;;;18.09;100.00;93323.06;5116891;28;20298;-59
2022/08/20 01:40:34;;;;;;;1999.90;999.90;;;;;;;18.06;100.00;93307.50;5117064;28;20194;-59
2022/08/20 01:43:00;;;;;;;1999.90;999.90;;;;;;;18.04;100.00;93271.34;5117386;28;20254;-59
2022/08/20 01:45:27;;;;;;;1999.90;999.90;;;;;;;18.03;100.00;93253.25;5116631;28;20263;-58
2022/08/20 01:47:53;;;;;;;1999.90;999.90;;;;;;;17.97;100.00;93233.16;5116948;28;20199;-58
2022/08/20 01:50:26;;;;;;;1999.90;999.90;;;;;;;17.99;100.00;93223.13;5116595;28;20191;-58
2022/08/20 01:53:03;;;;;;;1999.90;999.90;;;;;;;17.95;100.00;93169.41;5117151;28;20199;-59
2022/08/20 01:55:30;;;;;;;1999.90;999.90;;;;;;;17.94;100.00;93096.06;5116995;28;20183;-62
2022/08/20 01:57:56;;;;;;;1999.90;999.90;;;;;;;17.92;100.00;92618.06;5116585;28;20206;-61
2022/08/20 02:00:22;;;;;;;1999.90;999.90;;;;;;;17.91;100.00;92599.97;5116345;28;20187;-62
2022/08/20 02:02:49;;;;;;;1999.90;999.90;;;;;;;17.92;100.00;92576.63;5116594;28;20225;-61
2022/08/20 02:05:15;;;;;;;1999.90;999.90;;;;;;;17.91;100.00;92558.53;5116512;28;20199;-61
2022/08/20 02:07:41;;;;;;;1999.90;999.90;;;;;;;17.89;100.00;92530.72;5116728;28;20187;-62
2022/08/20 02:10:09;;;;;;;1999.90;999.90;;;;;;;17.88;100.00;92513.41;5116375;28;20202;-63
2022/08/20 02:12:35;;;;;;;1999.90;999.90;;;;;;;17.86;100.00;92504.16;5134697;28;20232;-58
2022/08/20 02:15:01;;;;;;;1999.90;999.90;;;;;;;17.86;100.00;92471.00;5116477;28;20280;-57
2022/08/20 02:17:26;;;;;;;1999.90;999.90;;;;;;;17.84;100.00;92466.00;5116199;28;20215;-57
2022/08/20 02:20:02;;;;;;;1999.90;999.90;;;;;;;17.86;100.00;92443.41;5116541;28;20194;-57
2022/08/20 02:22:48;;;;;;;1999.90;999.90;;;;;;;17.83;100.00;92433.38;5116155;28;20195;-58
2022/08/20 02:25:15;;;;;;;1999.90;999.90;;;;;;;17.81;100.00;92420.09;5116691;28;20183;-57
2022/08/20 02:27:44;;;;;;;1999.90;999.90;;;;;;;17.81;100.00;92394.53;5116310;28;20198;-61
2022/08/20 02:30:15;;;;;;;1999.90;999.90;;;;;;;17.78;100.00;92367.97;5116340;28;20263;-62
2022/08/20 02:32:42;;;;;;;1999.90;999.90;;;;;;;17.74;100.00;92350.94;5116699;28;20187;-62
2022/08/20 02:35:10;;;;;;;1999.90;999.90;;;;;;;17.74;100.00;92204.66;5116195;28;20197;-61
2022/08/20 02:37:36;;;;;;;1999.90;999.90;;;;;;;17.75;100.00;92175.75;5115885;28;20230;-62
2022/08/20 02:40:06;;;;;;;1999.90;999.90;;;;;;;17.72;100.00;92158.25;5118391;28;20194;-63
2022/08/20 02:42:33;;;;;;;1999.90;999.90;;;;;;;17.73;100.00;92137.63;5119688;28;20187;-60
2022/08/20 02:44:58;;;;;;;1999.90;999.90;;;;;;;17.73;100.00;92120.31;5120113;28;20191;-61
2022/08/20 02:47:26;;;;;;;1999.90;999.90;;;;;;;17.72;100.00;92116.09;5119669;28;20235;-57
2022/08/20 02:49:53;;;;;;;1999.90;999.90;;;;;;;17.70;100.00;92100.06;5119947;28;20212;-59
2022/08/20 02:52:18;;;;;;;1999.90;999.90;;;;;;;17.72;100.00;92080.19;5119532;28;20195;-60
2022/08/20 02:54:44;;;;;;;1999.90;999.90;;;;;;;17.68;100.00;92032.84;5119566;28;20236;-60
2022/08/20 02:57:14;;;;;;;1999.90;999.90;;;;;;;17.66;100.00;92024.38;5119293;28;20213;-58
2022/08/20 02:59:39;;;;;;;1999.90;999.90;;;;;;;17.62;100.00;92030.19;5119433;28;20175;-59
2022/08/20 03:02:04;;;;;;;1999.90;999.90;;;;;;;17.63;100.00;92042.00;5119601;28;20187;-58
2022/08/20 03:04:30;;;;;;;1999.90;999.90;;;;;;;17.66;100.00;92054.72;5119256;28;20209;-57
2022/08/20 03:06:56;;;;;;;1999.90;999.90;;;;;;;17.68;100.00;92077.00;5119166;28;20183;-53
2022/08/20 03:09:22;;;;;;;1999.90;999.90;;;;;;;17.66;100.00;92085.81;5119168;28;20255;-57
2022/08/20 03:11:48;;;;;;;1999.90;999.90;;;;;;;17.66;100.00;92109.94;5119166;28;20213;-57
2022/08/20 03:14:13;;;;;;;1999.90;999.90;;;;;;;17.66;100.00;92148.56;5119873;28;20203;-57
2022/08/20 03:16:38;;;;;;;1999.90;999.90;;;;;;;17.65;100.00;92169.91;5119496;28;20202;-57
2022/08/20 03:19:04;;;;;;;1999.90;999.90;;;;;;;17.67;100.00;92199.75;5119248;28;20191;-57
2022/08/20 03:21:29;;;;;;;1999.90;999.90;;;;;;;17.66;100.00;92206.53;5119338;28;20186;-58
2022/08/20 03:23:55;;;;;;;1999.90;999.90;;;;;;;17.65;100.00;92213.31;5119027;28;20266;-59
2022/08/20 03:26:20;;;;;;;1999.90;999.90;;;;;;;17.65;100.00;92210.53;5119099;28;20191;-53
2022/08/20 03:28:45;;;;;;;1999.90;999.90;;;;;;;17.65;100.00;92205.03;5119288;28;20258;-54
2022/08/20 03:31:11;;;;;;;1999.90;999.90;;;;;;;17.68;100.00;92212.25;5118954;28;20223;-54
2022/08/20 03:33:38;;;;;;;1999.90;999.90;;;;;;;17.68;100.00;92234.34;5119062;28;20191;-53
2022/08/20 03:36:04;;;;;;;1999.90;999.90;;;;;;;17.69;100.00;92236.59;5118756;28;20179;-56
2022/08/20 03:38:30;;;;;;;1999.90;999.90;;;;;;;17.64;100.00;92244.94;5118951;28;20193;-53
2022/08/20 03:40:56;;;;;;;1999.90;999.90;;;;;;;17.66;100.00;92272.78;5118890;28;20242;-57
2022/08/20 03:43:21;;;;;;;1999.90;999.90;;;;;;;17.68;100.00;92286.78;5118782;28;20270;-58
2022/08/20 03:45:46;;;;;;;1999.90;999.90;;;;;;;17.68;100.00;92300.59;5118591;28;20183;-60
2022/08/20 03:48:15;;;;;;;1999.90;999.90;;;;;;;17.71;100.00;92316.09;5119092;28;20222;-59
2022/08/20 03:50:42;;;;;;;1999.90;999.90;;;;;;;17.65;100.00;92481.03;5118026;27;20194;-58
2022/08/20 03:53:10;;;;;;;1999.90;999.90;;;;;;;17.62;100.00;92501.41;5118490;28;20187;-60
2022/08/20 03:55:37;;;;;;;1999.90;999.90;;;;;;;17.62;100.00;92506.91;5118531;28;20191;-59
2022/08/20 03:58:05;;;;;;;1999.90;999.90;;;;;;;17.62;100.00;92512.44;5118657;28;20223;-59
2022/08/20 04:00:33;;;;;;;1999.90;999.90;;;;;;;17.61;100.00;92530.28;5119110;28;20183;-56
2022/08/20 04:02:59;;;;;;;1999.90;999.90;;;;;;;17.58;100.00;92539.56;5118319;28;20247;-54
2022/08/20 04:05:26;;;;;;;1999.90;999.90;;;;;;;17.61;100.00;92533.03;5118296;28;20201;-57
2022/08/20 04:07:51;;;;;;;1999.90;999.90;;;;;;;17.59;100.00;92536.31;5118542;28;20198;-56
2022/08/20 04:10:17;;;;;;;1999.90;999.90;;;;;;;17.58;100.00;92600.31;5118368;28;20207;-57
2022/08/20 04:12:46;;;;;;;1999.90;999.90;;;;;;;17.56;100.00;92597.31;5118690;28;20216;-58
2022/08/20 04:15:14;;;;;;;1999.90;999.90;;;;;;;17.59;100.00;92615.63;5118283;28;20187;-56
2022/08/20 04:17:42;;;;;;;1999.90;999.90;;;;;;;17.56;100.00;92624.94;5117944;28;20203;-57
2022/08/20 04:20:10;;;;;;;1999.90;999.90;;;;;;;17.58;100.00;92622.38;5118327;28;20225;-61
2022/08/20 04:22:35;;;;;;;1999.90;999.90;;;;;;;17.60;100.00;92608.81;5117971;28;20194;-59
2022/08/20 04:25:02;;;;;;;1999.90;999.90;;;;;;;17.60;100.00;92625.38;5117953;28;20190;-59
2022/08/20 04:27:27;;;;;;;1999.90;999.90;;;;;;;17.60;100.00;92630.91;5118654;28;20199;-59
